sensor_id;sensor_type;location;lat;lon;timestamp;pressure;altitude;pressure_sealevel;temperature;humidity
56518;BME280;42419;48.760;2.322;2022-11-20T00:02:09;100690.19;;;25.55;34.42
56518;BME280;42419;48.760;2.322;2022-11-20T00:04:34;100659.69;;;25.40;34.54
56518;BME280;42419;48.760;2.322;2022-11-20T00:07:00;100670.00;;;25.47;34.47
56518;BME280;42419;48.760;2.322;2022-11-20T00:09:25;100668.16;;;25.48;34.11
56518;BME280;42419;48.760;2.322;2022-11-20T00:11:50;100687.50;;;25.55;34.27
56518;BME280;42419;48.760;2.322;2022-11-20T00:14:16;100671.72;;;25.48;34.39
56518;BME280;42419;48.760;2.322;2022-11-20T00:16:41;100685.75;;;25.54;34.03
56518;BME280;42419;48.760;2.322;2022-11-20T00:19:07;100674.41;;;25.48;33.56
56518;BME280;42419;48.760;2.322;2022-11-20T00:21:32;100629.34;;;25.22;34.10
56518;BME280;42419;48.760;2.322;2022-11-20T00:23:57;100687.50;;;25.55;33.33
56518;BME280;42419;48.760;2.322;2022-11-20T00:26:25;100684.81;;;25.55;33.13
56518;BME280;42419;48.760;2.322;2022-11-20T00:28:52;100684.81;;;25.55;33.28
56518;BME280;42419;48.760;2.322;2022-11-20T00:31:18;100682.97;;;25.55;33.08
56518;BME280;42419;48.760;2.322;2022-11-20T00:33:44;100629.19;;;25.25;33.30
56518;BME280;42419;48.760;2.322;2022-11-20T00:36:13;100691.81;;;25.57;32.90
56518;BME280;42419;48.760;2.322;2022-11-20T00:38:39;100684.59;;;25.58;33.39
56518;BME280;42419;48.760;2.322;2022-11-20T00:41:09;100684.81;;;25.55;33.22
56518;BME280;42419;48.760;2.322;2022-11-20T00:43:35;100691.75;;;25.59;32.54
56518;BME280;42419;48.760;2.322;2022-11-20T00:46:07;100693.47;;;25.60;32.58
56518;BME280;42419;48.760;2.322;2022-11-20T00:48:33;100684.03;;;25.53;32.80
56518;BME280;42419;48.760;2.322;2022-11-20T00:50:58;100692.69;;;25.58;32.59
56518;BME280;42419;48.760;2.322;2022-11-20T00:53:24;100699.75;;;25.60;32.89
56518;BME280;42419;48.760;2.322;2022-11-20T00:56:00;100700.69;;;25.59;32.28
56518;BME280;42419;48.760;2.322;2022-11-20T00:58:30;100702.31;;;25.62;32.21
56518;BME280;42419;48.760;2.322;2022-11-20T01:01:06;100699.53;;;25.63;32.55
56518;BME280;42419;48.760;2.322;2022-11-20T01:03:33;100679.41;;;25.55;32.27
56518;BME280;42419;48.760;2.322;2022-11-20T01:06:15;100699.44;;;25.65;32.03
56518;BME280;42419;48.760;2.322;2022-11-20T01:08:41;100693.19;;;25.64;32.47
56518;BME280;42419;48.760;2.322;2022-11-20T01:11:16;100680.38;;;25.54;31.83
56518;BME280;42419;48.760;2.322;2022-11-20T01:13:42;100700.41;;;25.64;32.29
56518;BME280;42419;48.760;2.322;2022-11-20T01:16:18;100706.66;;;25.64;32.38
56518;BME280;42419;48.760;2.322;2022-11-20T01:18:46;100704.72;;;25.66;31.61
56518;BME280;42419;48.760;2.322;2022-11-20T01:21:16;100703.00;;;25.65;32.20
56518;BME280;42419;48.760;2.322;2022-11-20T01:23:42;100701.28;;;25.64;31.84
56518;BME280;42419;48.760;2.322;2022-11-20T01:26:13;100699.34;;;25.66;31.70
56518;BME280;42419;48.760;2.322;2022-11-20T01:28:40;100699.44;;;25.65;32.01
56518;BME280;42419;48.760;2.322;2022-11-20T01:31:14;100702.91;;;25.67;31.29
56518;BME280;42419;48.760;2.322;2022-11-20T01:33:41;100697.50;;;25.67;31.70
56518;BME280;42419;48.760;2.322;2022-11-20T01:36:07;100674.81;;;25.57;31.54
56518;BME280;42419;48.760;2.322;2022-11-20T01:38:32;100678.75;;;25.65;31.83
56518;BME280;42419;48.760;2.322;2022-11-20T01:40:58;100689.16;;;25.71;31.24
56518;BME280;42419;48.760;2.322;2022-11-20T01:43:24;100686.47;;;25.71;31.33
56518;BME280;42419;48.760;2.322;2022-11-20T01:48:28;100646.78;;;25.45;30.91
56518;BME280;42419;48.760;2.322;2022-11-20T01:50:55;100685.59;;;25.71;30.92
56518;BME280;42419;48.760;2.322;2022-11-20T01:53:25;100687.31;;;25.72;31.02
56518;BME280;42419;48.760;2.322;2022-11-20T01:55:54;100687.50;;;25.69;31.34
56518;BME280;42419;48.760;2.322;2022-11-20T01:58:22;100632.72;;;25.40;31.43
56518;BME280;42419;48.760;2.322;2022-11-20T02:00:50;100675.84;;;25.68;30.75
56518;BME280;42419;48.760;2.322;2022-11-20T02:03:18;100690.69;;;25.75;31.37
56518;BME280;42419;48.760;2.322;2022-11-20T02:06:19;100679.91;;;25.75;30.89
56518;BME280;42419;48.760;2.322;2022-11-20T02:08:46;100666.88;;;25.68;31.40
56518;BME280;42419;48.760;2.322;2022-11-20T02:11:11;100678.06;;;25.76;30.66
56518;BME280;42419;48.760;2.322;2022-11-20T02:13:38;100668.44;;;25.72;30.67
56518;BME280;42419;48.760;2.322;2022-11-20T02:16:36;100678.84;;;25.78;30.64
56518;BME280;42419;48.760;2.322;2022-11-20T02:19:05;100664.88;;;25.71;30.61
56518;BME280;42419;48.760;2.322;2022-11-20T02:21:49;100672.59;;;25.77;30.80
56518;BME280;42419;48.760;2.322;2022-11-20T02:24:18;100637.06;;;25.57;30.59
56518;BME280;42419;48.760;2.322;2022-11-20T02:26:58;100672.59;;;25.77;30.40
56518;BME280;42419;48.760;2.322;2022-11-20T02:29:39;100668.06;;;25.78;30.80
56518;BME280;42419;48.760;2.322;2022-11-20T02:32:18;100676.16;;;25.78;30.25
56518;BME280;42419;48.760;2.322;2022-11-20T02:34:43;100659.19;;;25.76;30.83
56518;BME280;42419;48.760;2.322;2022-11-20T02:37:08;100667.94;;;25.79;30.55
56518;BME280;42419;48.760;2.322;2022-11-20T02:39:34;100668.81;;;25.80;30.70
56518;BME280;42419;48.760;2.322;2022-11-20T02:42:01;100665.16;;;25.81;30.47
56518;BME280;42419;48.760;2.322;2022-11-20T02:44:27;100656.19;;;25.80;30.04
56518;BME280;42419;48.760;2.322;2022-11-20T02:46:52;100640.31;;;25.76;30.29
56518;BME280;42419;48.760;2.322;2022-11-20T02:49:17;100643.50;;;25.82;29.91
56518;BME280;42419;48.760;2.322;2022-11-20T02:51:43;100644.34;;;25.83;30.11
56518;BME280;42419;48.760;2.322;2022-11-20T02:54:08;100638.97;;;25.83;30.16
56518;BME280;42419;48.760;2.322;2022-11-20T02:56:33;100627.41;;;25.81;30.22
56518;BME280;42419;48.760;2.322;2022-11-20T02:58:59;100624.41;;;25.85;30.30
56518;BME280;42419;48.760;2.322;2022-11-20T03:01:24;100623.44;;;25.86;29.73
56518;BME280;42419;48.760;2.322;2022-11-20T03:03:50;100625.25;;;25.86;30.14
56518;BME280;42419;48.760;2.322;2022-11-20T03:06:16;100621.59;;;25.87;30.29
56518;BME280;42419;48.760;2.322;2022-11-20T03:08:42;100612.56;;;25.88;30.11
56518;BME280;42419;48.760;2.322;2022-11-20T03:11:07;100608.00;;;25.88;29.98
56518;BME280;42419;48.760;2.322;2022-11-20T03:13:33;100607.91;;;25.90;30.13
56518;BME280;42419;48.760;2.322;2022-11-20T03:16:11;100605.22;;;25.90;29.73
56518;BME280;42419;48.760;2.322;2022-11-20T03:18:38;100604.34;;;25.89;29.85
56518;BME280;42419;48.760;2.322;2022-11-20T03:21:03;100596.38;;;25.88;29.59
56518;BME280;42419;48.760;2.322;2022-11-20T03:23:30;100588.59;;;25.83;29.84
56518;BME280;42419;48.760;2.322;2022-11-20T03:26:11;100590.97;;;25.88;29.72
56518;BME280;42419;48.760;2.322;2022-11-20T03:28:36;100603.94;;;25.96;29.70
56518;BME280;42419;48.760;2.322;2022-11-20T03:31:26;100594.03;;;25.96;29.27
56518;BME280;42419;48.760;2.322;2022-11-20T03:33:52;100590.66;;;25.92;29.49
56518;BME280;42419;48.760;2.322;2022-11-20T03:36:19;100586.78;;;25.97;29.36
56518;BME280;42419;48.760;2.322;2022-11-20T03:38:45;100583.53;;;25.91;29.67
56518;BME280;42419;48.760;2.322;2022-11-20T03:41:13;100581.59;;;25.93;29.45
56518;BME280;42419;48.760;2.322;2022-11-20T03:43:39;100585.94;;;25.96;29.46
56518;BME280;42419;48.760;2.322;2022-11-20T03:46:05;100591.03;;;26.01;29.73
56518;BME280;42419;48.760;2.322;2022-11-20T03:48:31;100594.59;;;26.01;29.09
56518;BME280;42419;48.760;2.322;2022-11-20T03:51:12;100599.84;;;26.03;29.52
56518;BME280;42419;48.760;2.322;2022-11-20T03:53:39;100601.59;;;26.04;29.55
56518;BME280;42419;48.760;2.322;2022-11-20T03:56:08;100589.19;;;26.01;29.31
56518;BME280;42419;48.760;2.322;2022-11-20T03:58:35;100577.31;;;26.04;29.35
56518;BME280;42419;48.760;2.322;2022-11-20T04:01:13;100575.47;;;26.04;29.50
56518;BME280;42419;48.760;2.322;2022-11-20T04:03:40;100587.22;;;26.03;29.17
56518;BME280;42419;48.760;2.322;2022-11-20T04:06:15;100590.72;;;26.05;29.18
56518;BME280;42419;48.760;2.322;2022-11-20T04:08:41;100571.47;;;25.97;29.36
56518;BME280;42419;48.760;2.322;2022-11-20T04:11:15;100576.66;;;26.00;28.92
56518;BME280;42419;48.760;2.322;2022-11-20T04:13:41;100582.50;;;26.07;28.97
56518;BME280;42419;48.760;2.322;2022-11-20T04:16:08;100576.13;;;26.08;28.76
56518;BME280;42419;48.760;2.322;2022-11-20T04:18:34;100565.09;;;25.98;29.35
56518;BME280;42419;48.760;2.322;2022-11-20T04:21:00;100571.91;;;26.04;28.95
56518;BME280;42419;48.760;2.322;2022-11-20T04:23:26;100579.91;;;26.05;28.66
56518;BME280;42419;48.760;2.322;2022-11-20T04:25:51;100578.94;;;26.06;28.79
56518;BME280;42419;48.760;2.322;2022-11-20T04:28:17;100572.56;;;26.07;28.89
56518;BME280;42419;48.760;2.322;2022-11-20T04:30:43;100574.31;;;26.08;29.18
56518;BME280;42419;48.760;2.322;2022-11-20T04:33:08;100562.94;;;26.03;28.88
56518;BME280;42419;48.760;2.322;2022-11-20T04:35:35;100564.38;;;26.09;28.70
56518;BME280;42419;48.760;2.322;2022-11-20T04:38:01;100557.56;;;26.03;28.67
56518;BME280;42419;48.760;2.322;2022-11-20T04:40:27;100575.06;;;26.10;28.67
56518;BME280;42419;48.760;2.322;2022-11-20T04:42:53;100573.34;;;26.09;29.14
56518;BME280;42419;48.760;2.322;2022-11-20T04:45:19;100572.38;;;26.10;28.53
56518;BME280;42419;48.760;2.322;2022-11-20T04:47:44;100564.28;;;26.10;28.95
56518;BME280;42419;48.760;2.322;2022-11-20T04:50:09;100570.53;;;26.11;28.49
56518;BME280;42419;48.760;2.322;2022-11-20T04:52:35;100569.69;;;26.10;28.63
56518;BME280;42419;48.760;2.322;2022-11-20T04:55:00;100563.41;;;26.10;28.49
56518;BME280;42419;48.760;2.322;2022-11-20T04:57:26;100558.97;;;26.09;28.81
56518;BME280;42419;48.760;2.322;2022-11-20T04:59:51;100565.25;;;26.09;28.89
56518;BME280;42419;48.760;2.322;2022-11-20T05:02:16;100553.59;;;26.09;28.81
56518;BME280;42419;48.760;2.322;2022-11-20T05:04:42;100542.88;;;26.07;28.58
56518;BME280;42419;48.760;2.322;2022-11-20T05:07:07;100550.00;;;26.08;28.41
56518;BME280;42419;48.760;2.322;2022-11-20T05:09:32;100550.09;;;26.07;28.22
56518;BME280;42419;48.760;2.322;2022-11-20T05:11:58;100542.00;;;26.07;28.50
56518;BME280;42419;48.760;2.322;2022-11-20T05:14:23;100548.28;;;26.07;28.58
56518;BME280;42419;48.760;2.322;2022-11-20T05:16:48;100539.53;;;26.04;28.63
56518;BME280;42419;48.760;2.322;2022-11-20T05:19:14;100546.34;;;26.09;28.80
56518;BME280;42419;48.760;2.322;2022-11-20T05:21:39;100546.44;;;26.08;28.59
56518;BME280;42419;48.760;2.322;2022-11-20T05:24:05;100545.50;;;26.09;28.52
56518;BME280;42419;48.760;2.322;2022-11-20T05:26:31;100540.09;;;26.09;28.42
56518;BME280;42419;48.760;2.322;2022-11-20T05:28:56;100545.50;;;26.09;28.33
56518;BME280;42419;48.760;2.322;2022-11-20T05:31:23;100540.19;;;26.07;28.25
56518;BME280;42419;48.760;2.322;2022-11-20T05:33:49;100525.41;;;26.00;28.56
56518;BME280;42419;48.760;2.322;2022-11-20T05:36:16;100549.06;;;26.09;28.51
56518;BME280;42419;48.760;2.322;2022-11-20T05:38:42;100538.75;;;26.02;28.52
56518;BME280;42419;48.760;2.322;2022-11-20T05:41:19;100544.53;;;26.10;28.44
56518;BME280;42419;48.760;2.322;2022-11-20T05:43:46;100540.09;;;26.09;28.64
56518;BME280;42419;48.760;2.322;2022-11-20T05:46:13;100538.34;;;26.08;28.46
56518;BME280;42419;48.760;2.322;2022-11-20T05:48:41;100538.25;;;26.09;28.46
56518;BME280;42419;48.760;2.322;2022-11-20T05:51:09;100540.00;;;26.10;28.55
56518;BME280;42419;48.760;2.322;2022-11-20T05:53:36;100529.50;;;26.06;28.20
56518;BME280;42419;48.760;2.322;2022-11-20T05:56:05;100534.59;;;26.10;28.10
56518;BME280;42419;48.760;2.322;2022-11-20T05:58:31;100530.25;;;26.08;28.16
56518;BME280;42419;48.760;2.322;2022-11-20T06:01:24;100538.13;;;26.11;28.19
56518;BME280;42419;48.760;2.322;2022-11-20T06:03:50;100533.72;;;26.10;28.30
56518;BME280;42419;48.760;2.322;2022-11-20T06:06:17;100530.91;;;26.11;28.64
56518;BME280;42419;48.760;2.322;2022-11-20T06:08:43;100533.50;;;26.13;28.70
56518;BME280;42419;48.760;2.322;2022-11-20T06:11:10;100524.53;;;26.12;28.49
56518;BME280;42419;48.760;2.322;2022-11-20T06:13:36;100501.97;;;26.01;28.45
56518;BME280;42419;48.760;2.322;2022-11-20T06:16:02;100526.28;;;26.13;28.92
56518;BME280;42419;48.760;2.322;2022-11-20T06:18:28;100528.03;;;26.14;28.70
56518;BME280;42419;48.760;2.322;2022-11-20T06:21:12;100530.59;;;26.16;28.56
56518;BME280;42419;48.760;2.322;2022-11-20T06:23:38;100531.47;;;26.16;28.38
56518;BME280;42419;48.760;2.322;2022-11-20T06:26:04;100522.41;;;26.17;28.46
56518;BME280;42419;48.760;2.322;2022-11-20T06:28:30;100518.84;;;26.17;28.92
56518;BME280;42419;48.760;2.322;2022-11-20T06:30:55;100522.31;;;26.19;29.07
56518;BME280;42419;48.760;2.322;2022-11-20T06:33:21;100512.25;;;26.21;28.91
56518;BME280;42419;48.760;2.322;2022-11-20T06:35:46;100500.72;;;26.19;29.12
56518;BME280;42419;48.760;2.322;2022-11-20T06:38:11;100513.22;;;26.20;29.07
56518;BME280;42419;48.760;2.322;2022-11-20T06:40:40;100515.81;;;26.21;29.01
56518;BME280;42419;48.760;2.322;2022-11-20T06:43:05;100515.72;;;26.23;29.24
56518;BME280;42419;48.760;2.322;2022-11-20T06:45:30;100509.47;;;26.22;28.68
56518;BME280;42419;48.760;2.322;2022-11-20T06:47:57;100506.84;;;26.21;28.86
56518;BME280;42419;48.760;2.322;2022-11-20T06:50:23;100512.91;;;26.24;28.87
56518;BME280;42419;48.760;2.322;2022-11-20T06:52:48;100510.09;;;26.26;28.90
56518;BME280;42419;48.760;2.322;2022-11-20T06:55:13;100510.09;;;26.26;28.96
56518;BME280;42419;48.760;2.322;2022-11-20T06:57:39;100510.00;;;26.27;28.82
56518;BME280;42419;48.760;2.322;2022-11-20T07:00:04;100496.06;;;26.21;28.80
56518;BME280;42419;48.760;2.322;2022-11-20T07:02:30;100510.09;;;26.26;28.93
56518;BME280;42419;48.760;2.322;2022-11-20T07:04:55;100535.72;;;26.33;28.74
56518;BME280;42419;48.760;2.322;2022-11-20T07:07:21;100535.72;;;26.33;28.66
56518;BME280;42419;48.760;2.322;2022-11-20T07:09:46;100522.63;;;26.27;28.95
56518;BME280;42419;48.760;2.322;2022-11-20T07:12:11;100540.63;;;26.41;29.09
56518;BME280;42419;48.760;2.322;2022-11-20T07:14:40;100528.31;;;26.37;28.89
56518;BME280;42419;48.760;2.322;2022-11-20T07:17:05;100531.56;;;26.42;29.02
56518;BME280;42419;48.760;2.322;2022-11-20T07:19:30;100536.97;;;26.42;28.58
56518;BME280;42419;48.760;2.322;2022-11-20T07:21:56;100535.09;;;26.42;28.51
56518;BME280;42419;48.760;2.322;2022-11-20T07:24:21;100522.69;;;26.40;28.56
56518;BME280;42419;48.760;2.322;2022-11-20T07:26:47;100513.94;;;26.36;28.52
56518;BME280;42419;48.760;2.322;2022-11-20T07:29:14;100528.94;;;26.40;28.67
56518;BME280;42419;48.760;2.322;2022-11-20T07:31:40;100523.88;;;26.35;28.45
56518;BME280;42419;48.760;2.322;2022-11-20T07:34:05;100530.47;;;26.44;28.38
56518;BME280;42419;48.760;2.322;2022-11-20T07:36:30;100535.09;;;26.42;28.00
56518;BME280;42419;48.760;2.322;2022-11-20T07:38:56;100526.16;;;26.42;28.47
56518;BME280;42419;48.760;2.322;2022-11-20T07:41:21;100527.31;;;26.38;28.28
56518;BME280;42419;48.760;2.322;2022-11-20T07:43:46;100536.72;;;26.45;28.41
56518;BME280;42419;48.760;2.322;2022-11-20T07:46:12;100527.13;;;26.41;28.45
56518;BME280;42419;48.760;2.322;2022-11-20T07:48:37;100503.63;;;26.28;28.06
56518;BME280;42419;48.760;2.322;2022-11-20T07:51:02;100531.34;;;26.45;28.17
56518;BME280;42419;48.760;2.322;2022-11-20T07:53:28;100529.50;;;26.45;28.20
56518;BME280;42419;48.760;2.322;2022-11-20T07:55:53;100526.81;;;26.45;28.67
56518;BME280;42419;48.760;2.322;2022-11-20T07:58:19;100524.19;;;26.44;28.22
56518;BME280;42419;48.760;2.322;2022-11-20T08:00:45;100517.41;;;26.51;28.23
56518;BME280;42419;48.760;2.322;2022-11-20T08:03:10;100516.53;;;26.50;28.36
56518;BME280;42419;48.760;2.322;2022-11-20T08:05:36;100526.91;;;26.56;28.81
56518;BME280;42419;48.760;2.322;2022-11-20T08:08:02;100512.09;;;26.49;28.60
56518;BME280;42419;48.760;2.322;2022-11-20T08:10:28;100527.88;;;26.55;28.86
56518;BME280;42419;48.760;2.322;2022-11-20T08:12:53;100520.63;;;26.56;28.32
56518;BME280;42419;48.760;2.322;2022-11-20T08:15:38;100509.50;;;26.48;29.00
56518;BME280;42419;48.760;2.322;2022-11-20T08:18:06;100526.25;;;26.53;28.73
56518;BME280;42419;48.760;2.322;2022-11-20T08:20:32;100512.97;;;26.50;28.52
56518;BME280;42419;48.760;2.322;2022-11-20T08:23:04;100519.88;;;26.54;28.49
56518;BME280;42419;48.760;2.322;2022-11-20T08:25:32;100497.97;;;26.46;28.34
56518;BME280;42419;48.760;2.322;2022-11-20T08:27:58;100510.81;;;26.55;28.75
56518;BME280;42419;48.760;2.322;2022-11-20T08:30:24;100499.47;;;26.50;28.73
56518;BME280;42419;48.760;2.322;2022-11-20T08:32:50;100503.47;;;26.57;28.76
56518;BME280;42419;48.760;2.322;2022-11-20T08:35:15;100499.03;;;26.56;28.76
56518;BME280;42419;48.760;2.322;2022-11-20T08:37:45;100483.47;;;26.47;28.67
56518;BME280;42419;48.760;2.322;2022-11-20T08:40:11;100493.84;;;26.53;29.03
56518;BME280;42419;48.760;2.322;2022-11-20T08:42:36;100488.53;;;26.51;28.95
56518;BME280;42419;48.760;2.322;2022-11-20T08:45:02;100492.13;;;26.52;29.05
56518;BME280;42419;48.760;2.322;2022-11-20T08:47:28;100484.16;;;26.50;29.20
56518;BME280;42419;48.760;2.322;2022-11-20T08:49:53;100482.72;;;26.45;29.26
56518;BME280;42419;48.760;2.322;2022-11-20T08:52:18;100487.03;;;26.47;29.11
56518;BME280;42419;48.760;2.322;2022-11-20T08:54:44;100480.91;;;26.45;29.28
56518;BME280;42419;48.760;2.322;2022-11-20T08:57:09;100481.88;;;26.44;29.02
56518;BME280;42419;48.760;2.322;2022-11-20T08:59:34;100477.34;;;26.45;29.02
56518;BME280;42419;48.760;2.322;2022-11-20T09:02:00;100461.56;;;26.39;29.09
56518;BME280;42419;48.760;2.322;2022-11-20T09:04:25;100469.31;;;26.43;29.46
56518;BME280;42419;48.760;2.322;2022-11-20T09:06:50;100472.03;;;26.43;29.69
56518;BME280;42419;48.760;2.322;2022-11-20T09:09:17;100470.19;;;26.44;29.22
56518;BME280;42419;48.760;2.322;2022-11-20T09:11:43;100464.78;;;26.44;29.44
56518;BME280;42419;48.760;2.322;2022-11-20T09:14:08;100452.59;;;26.38;29.26
56518;BME280;42419;48.760;2.322;2022-11-20T09:16:34;100454.88;;;26.44;28.94
56518;BME280;42419;48.760;2.322;2022-11-20T09:18:59;100433.28;;;26.31;29.21
56518;BME280;42419;48.760;2.322;2022-11-20T09:21:24;100454.97;;;26.43;29.37
56518;BME280;42419;48.760;2.322;2022-11-20T09:23:50;100450.34;;;26.45;29.61
56518;BME280;42419;48.760;2.322;2022-11-20T09:26:15;100457.25;;;26.49;29.31
56518;BME280;42419;48.760;2.322;2022-11-20T09:28:41;100448.59;;;26.44;29.25
56518;BME280;42419;48.760;2.322;2022-11-20T09:31:08;100449.22;;;26.47;29.50
56518;BME280;42419;48.760;2.322;2022-11-20T09:33:34;100435.63;;;26.49;29.63
56518;BME280;42419;48.760;2.322;2022-11-20T09:36:00;100424.84;;;26.49;29.58
56518;BME280;42419;48.760;2.322;2022-11-20T09:38:25;100413.50;;;26.44;29.36
56518;BME280;42419;48.760;2.322;2022-11-20T09:43:28;100417.50;;;26.51;29.34
56518;BME280;42419;48.760;2.322;2022-11-20T09:46:27;100414.66;;;26.52;29.03
56518;BME280;42419;48.760;2.322;2022-11-20T09:49:25;100410.13;;;26.53;29.03
56518;BME280;42419;48.760;2.322;2022-11-20T09:52:30;100416.50;;;26.52;29.83
56518;BME280;42419;48.760;2.322;2022-11-20T09:54:44;100409.59;;;26.48;29.40
56518;BME280;42419;48.760;2.322;2022-11-20T09:57:12;100421.91;;;26.52;29.44
56518;BME280;42419;48.760;2.322;2022-11-20T09:59:56;100407.34;;;26.42;29.39
56518;BME280;42419;48.760;2.322;2022-11-20T10:04:57;100414.81;;;26.51;29.42
56518;BME280;42419;48.760;2.322;2022-11-20T10:07:59;100368.00;;;26.25;29.45
56518;BME280;42419;48.760;2.322;2022-11-20T10:13:23;100423.09;;;26.48;29.10
56518;BME280;42419;48.760;2.322;2022-11-20T10:16:22;100417.84;;;26.46;29.06
56518;BME280;42419;48.760;2.322;2022-11-20T10:19:09;100410.06;;;26.42;28.93
56518;BME280;42419;48.760;2.322;2022-11-20T10:21:55;100397.41;;;26.42;29.00
56518;BME280;42419;48.760;2.322;2022-11-20T10:27:21;100391.59;;;26.35;28.63
56518;BME280;42419;48.760;2.322;2022-11-20T10:30:11;100386.28;;;26.34;29.17
56518;BME280;42419;48.760;2.322;2022-11-20T10:32:43;100370.63;;;26.26;29.10
56518;BME280;42419;48.760;2.322;2022-11-20T10:35:35;100380.78;;;26.35;29.01
56518;BME280;42419;48.760;2.322;2022-11-20T10:38:11;100379.06;;;26.34;29.03
56518;BME280;42419;48.760;2.322;2022-11-20T10:40:42;100367.38;;;26.34;29.33
56518;BME280;42419;48.760;2.322;2022-11-20T10:43:13;100363.81;;;26.33;29.00
56518;BME280;42419;48.760;2.322;2022-11-20T10:45:51;100369.34;;;26.32;29.34
56518;BME280;42419;48.760;2.322;2022-11-20T10:48:26;100366.75;;;26.30;29.04
56518;BME280;42419;48.760;2.322;2022-11-20T10:51:08;100375.63;;;26.32;29.21
56518;BME280;42419;48.760;2.322;2022-11-20T10:54:06;100371.19;;;26.31;29.14
56518;BME280;42419;48.760;2.322;2022-11-20T10:56:45;100369.44;;;26.30;28.73
56518;BME280;42419;48.760;2.322;2022-11-20T11:01:48;100357.13;;;26.26;29.26
56518;BME280;42419;48.760;2.322;2022-11-20T11:04:36;100354.22;;;26.29;28.98
56518;BME280;42419;48.760;2.322;2022-11-20T11:07:17;100357.03;;;26.28;29.20
56518;BME280;42419;48.760;2.322;2022-11-20T11:09:51;100346.56;;;26.23;29.29
56518;BME280;42419;48.760;2.322;2022-11-20T11:12:19;100351.72;;;26.26;29.06
56518;BME280;42419;48.760;2.322;2022-11-20T11:14:56;100343.72;;;26.25;29.04
56518;BME280;42419;48.760;2.322;2022-11-20T11:17:26;100335.75;;;26.23;29.22
56518;BME280;42419;48.760;2.322;2022-11-20T11:22:44;100326.78;;;26.23;29.01
56518;BME280;42419;48.760;2.322;2022-11-20T11:25:24;100324.97;;;26.23;29.58
56518;BME280;42419;48.760;2.322;2022-11-20T11:27:53;100319.75;;;26.20;29.03
56518;BME280;42419;48.760;2.322;2022-11-20T11:30:22;100320.53;;;26.22;29.34
56518;BME280;42419;48.760;2.322;2022-11-20T11:32:48;100324.63;;;26.15;29.44
56518;BME280;42419;48.760;2.322;2022-11-20T11:35:44;100315.03;;;26.11;29.53
56518;BME280;42419;48.760;2.322;2022-11-20T11:38:15;100333.25;;;26.20;29.49
56518;BME280;42419;48.760;2.322;2022-11-20T11:40:42;100326.16;;;26.19;29.34
56518;BME280;42419;48.760;2.322;2022-11-20T11:43:18;100320.75;;;26.19;29.63
56518;BME280;42419;48.760;2.322;2022-11-20T11:46:23;100312.22;;;26.13;29.25
56518;BME280;42419;48.760;2.322;2022-11-20T11:54:19;100311.03;;;26.17;29.50
56518;BME280;42419;48.760;2.322;2022-11-20T11:56:45;100303.78;;;26.17;29.50
56518;BME280;42419;48.760;2.322;2022-11-20T11:59:18;100305.63;;;26.17;29.24
56518;BME280;42419;48.760;2.322;2022-11-20T12:01:53;100294.44;;;26.10;29.40
56518;BME280;42419;48.760;2.322;2022-11-20T12:04:40;100283.84;;;26.07;29.62
56518;BME280;42419;48.760;2.322;2022-11-20T12:07:12;100293.88;;;26.18;29.20
56518;BME280;42419;48.760;2.322;2022-11-20T12:09:47;100286.75;;;26.17;29.65
56518;BME280;42419;48.760;2.322;2022-11-20T12:12:31;100285.13;;;26.14;29.34
56518;BME280;42419;48.760;2.322;2022-11-20T12:14:58;100286.63;;;26.18;29.59
56518;BME280;42419;48.760;2.322;2022-11-20T12:17:23;100286.41;;;26.21;29.35
56518;BME280;42419;48.760;2.322;2022-11-20T12:19:49;100277.56;;;26.19;29.77
56518;BME280;42419;48.760;2.322;2022-11-20T12:25:30;100244.00;;;26.11;29.61
56518;BME280;42419;48.760;2.322;2022-11-20T12:28:28;100258.56;;;26.21;29.64
56518;BME280;42419;48.760;2.322;2022-11-20T12:33:54;100260.38;;;26.20;29.16
56518;BME280;42419;48.760;2.322;2022-11-20T12:36:40;100268.63;;;26.19;29.29
56518;BME280;42419;48.760;2.322;2022-11-20T12:47:39;100271.31;;;26.19;29.53
56518;BME280;42419;48.760;2.322;2022-11-20T12:52:53;100286.50;;;26.20;29.62
56518;BME280;42419;48.760;2.322;2022-11-20T12:58:20;100282.97;;;26.19;29.90
56518;BME280;42419;48.760;2.322;2022-11-20T13:01:22;100275.22;;;26.15;29.49
56518;BME280;42419;48.760;2.322;2022-11-20T13:06:50;100277.91;;;26.15;29.90
56518;BME280;42419;48.760;2.322;2022-11-20T13:09:18;100266.44;;;26.11;29.64
56518;BME280;42419;48.760;2.322;2022-11-20T13:12:09;100277.91;;;26.15;30.38
56518;BME280;42419;48.760;2.322;2022-11-20T13:19:54;100215.97;;;26.01;30.40
56518;BME280;42419;48.760;2.322;2022-11-20T13:22:28;100247.13;;;26.17;29.67
56518;BME280;42419;48.760;2.322;2022-11-20T13:24:53;100265.16;;;26.17;30.42
56518;BME280;42419;48.760;2.322;2022-11-20T13:27:21;100252.22;;;26.09;29.95
56518;BME280;42419;48.760;2.322;2022-11-20T13:30:24;100274.13;;;26.17;29.92
56518;BME280;42419;48.760;2.322;2022-11-20T13:32:52;100256.31;;;26.02;29.79
56518;BME280;42419;48.760;2.322;2022-11-20T13:35:54;100205.22;;;25.75;30.12
56518;BME280;42419;48.760;2.322;2022-11-20T13:38:20;100269.91;;;26.13;29.93
56518;BME280;42419;48.760;2.322;2022-11-20T13:43:40;100264.41;;;26.15;29.67
56518;BME280;42419;48.760;2.322;2022-11-20T13:46:09;100255.03;;;26.08;29.74
56518;BME280;42419;48.760;2.322;2022-11-20T13:48:44;100268.94;;;26.14;29.94
56518;BME280;42419;48.760;2.322;2022-11-20T13:51:42;100259.34;;;26.10;30.10
56518;BME280;42419;48.760;2.322;2022-11-20T13:54:39;100270.00;;;26.12;29.60
56518;BME280;42419;48.760;2.322;2022-11-20T14:00:15;100269.38;;;26.08;29.85
56518;BME280;42419;48.760;2.322;2022-11-20T14:02:41;100268.63;;;26.06;29.89
56518;BME280;42419;48.760;2.322;2022-11-20T14:05:19;100244.25;;;25.95;30.33